sensor_id;sensor_type;location;lat;lon;timestamp;P1;durP1;ratioP1;P2;durP2;ratioP2
20004;SDS011;69160;45.498;-73.582;2023-04-12T00:02:25;2.47;;;2.00;;
20004;SDS011;69160;45.498;-73.582;2023-04-12T00:04:52;2.03;;;1.70;;
20004;SDS011;69160;45.498;-73.582;2023-04-12T00:07:22;3.40;;;1.50;;
20004;SDS011;69160;45.498;-73.582;2023-04-12T00:09:49;2.43;;;1.80;;
20004;SDS011;69160;45.498;-73.582;2023-04-12T00:12:18;2.13;;;1.80;;
20004;SDS011;69160;45.498;-73.582;2023-04-12T00:14:45;2.00;;;1.47;;
20004;SDS011;69160;45.498;-73.582;2023-04-12T00:17:12;2.70;;;1.97;;
20004;SDS011;69160;45.498;-73.582;2023-04-12T00:19:40;1.63;;;1.53;;
20004;SDS011;69160;45.498;-73.582;2023-04-12T00:22:07;1.70;;;1.50;;
20004;SDS011;69160;45.498;-73.582;2023-04-12T00:24:34;2.63;;;1.90;;
20004;SDS011;69160;45.498;-73.582;2023-04-12T00:27:01;2.93;;;1.77;;
20004;SDS011;69160;45.498;-73.582;2023-04-12T00:29:27;5.60;;;1.90;;
20004;SDS011;69160;45.498;-73.582;2023-04-12T00:31:54;3.43;;;1.90;;
20004;SDS011;69160;45.498;-73.582;2023-04-12T00:34:20;2.40;;;1.80;;
20004;SDS011;69160;45.498;-73.582;2023-04-12T00:36:46;2.47;;;1.70;;
20004;SDS011;69160;45.498;-73.582;2023-04-12T00:39:12;2.30;;;1.87;;
20004;SDS011;69160;45.498;-73.582;2023-04-12T00:41:38;3.50;;;2.03;;
20004;SDS011;69160;45.498;-73.582;2023-04-12T00:44:05;1.90;;;1.60;;
20004;SDS011;69160;45.498;-73.582;2023-04-12T00:46:33;2.70;;;1.60;;
20004;SDS011;69160;45.498;-73.582;2023-04-12T00:48:59;2.30;;;1.73;;
20004;SDS011;69160;45.498;-73.582;2023-04-12T00:51:27;2.10;;;1.83;;
20004;SDS011;69160;45.498;-73.582;2023-04-12T00:53:58;2.87;;;1.73;;
20004;SDS011;69160;45.498;-73.582;2023-04-12T00:56:25;3.47;;;1.80;;
20004;SDS011;69160;45.498;-73.582;2023-04-12T00:58:53;3.77;;;1.50;;
20004;SDS011;69160;45.498;-73.582;2023-04-12T01:01:20;3.53;;;1.67;;
20004;SDS011;69160;45.498;-73.582;2023-04-12T01:03:47;1.70;;;1.60;;
20004;SDS011;69160;45.498;-73.582;2023-04-12T01:06:25;4.03;;;1.63;;
20004;SDS011;69160;45.498;-73.582;2023-04-12T01:12:48;6.13;;;1.63;;
20004;SDS011;69160;45.498;-73.582;2023-04-12T01:15:08;1.90;;;1.63;;
20004;SDS011;69160;45.498;-73.582;2023-04-12T01:17:59;2.07;;;1.77;;
20004;SDS011;69160;45.498;-73.582;2023-04-12T01:20:32;2.13;;;1.50;;
20004;SDS011;69160;45.498;-73.582;2023-04-12T01:23:11;3.43;;;1.53;;
20004;SDS011;69160;45.498;-73.582;2023-04-12T01:28:26;2.17;;;1.70;;
20004;SDS011;69160;45.498;-73.582;2023-04-12T01:30:59;3.03;;;1.80;;
20004;SDS011;69160;45.498;-73.582;2023-04-12T01:33:27;1.93;;;1.73;;
20004;SDS011;69160;45.498;-73.582;2023-04-12T01:36:02;2.80;;;1.60;;
20004;SDS011;69160;45.498;-73.582;2023-04-12T01:38:33;2.20;;;1.70;;
20004;SDS011;69160;45.498;-73.582;2023-04-12T01:40:59;1.67;;;1.57;;
20004;SDS011;69160;45.498;-73.582;2023-04-12T01:43:26;1.73;;;1.53;;
20004;SDS011;69160;45.498;-73.582;2023-04-12T01:45:52;1.80;;;1.40;;
20004;SDS011;69160;45.498;-73.582;2023-04-12T01:48:18;2.70;;;1.47;;
20004;SDS011;69160;45.498;-73.582;2023-04-12T01:51:04;13.70;;;1.60;;
20004;SDS011;69160;45.498;-73.582;2023-04-12T01:56:08;2.00;;;1.60;;
20004;SDS011;69160;45.498;-73.582;2023-04-12T01:58:38;4.60;;;1.27;;
20004;SDS011;69160;45.498;-73.582;2023-04-12T02:01:08;2.27;;;1.37;;
20004;SDS011;69160;45.498;-73.582;2023-04-12T02:03:42;1.43;;;1.30;;
20004;SDS011;69160;45.498;-73.582;2023-04-12T02:06:10;1.27;;;1.17;;
20004;SDS011;69160;45.498;-73.582;2023-04-12T02:08:37;1.90;;;1.40;;
20004;SDS011;69160;45.498;-73.582;2023-04-12T02:11:07;1.30;;;1.20;;
20004;SDS011;69160;45.498;-73.582;2023-04-12T02:13:33;2.60;;;1.50;;
20004;SDS011;69160;45.498;-73.582;2023-04-12T02:16:00;1.30;;;1.20;;
20004;SDS011;69160;45.498;-73.582;2023-04-12T02:18:26;1.87;;;1.43;;
20004;SDS011;69160;45.498;-73.582;2023-04-12T02:20:53;1.30;;;1.20;;
20004;SDS011;69160;45.498;-73.582;2023-04-12T02:23:20;1.80;;;1.30;;
20004;SDS011;69160;45.498;-73.582;2023-04-12T02:25:46;2.30;;;1.47;;
20004;SDS011;69160;45.498;-73.582;2023-04-12T02:28:12;1.43;;;1.30;;
20004;SDS011;69160;45.498;-73.582;2023-04-12T02:30:39;2.80;;;1.47;;
20004;SDS011;69160;45.498;-73.582;2023-04-12T02:33:08;3.23;;;1.67;;
20004;SDS011;69160;45.498;-73.582;2023-04-12T02:35:34;1.30;;;1.10;;
20004;SDS011;69160;45.498;-73.582;2023-04-12T02:38:01;1.73;;;1.60;;
20004;SDS011;69160;45.498;-73.582;2023-04-12T02:40:36;2.00;;;1.10;;
20004;SDS011;69160;45.498;-73.582;2023-04-12T02:43:05;1.67;;;1.37;;
20004;SDS011;69160;45.498;-73.582;2023-04-12T02:45:31;2.00;;;1.50;;
20004;SDS011;69160;45.498;-73.582;2023-04-12T02:47:57;1.70;;;1.40;;
20004;SDS011;69160;45.498;-73.582;2023-04-12T02:50:23;2.27;;;1.20;;
20004;SDS011;69160;45.498;-73.582;2023-04-12T02:52:51;1.17;;;1.00;;
20004;SDS011;69160;45.498;-73.582;2023-04-12T02:55:17;1.40;;;1.10;;
20004;SDS011;69160;45.498;-73.582;2023-04-12T02:57:44;1.50;;;1.30;;
20004;SDS011;69160;45.498;-73.582;2023-04-12T03:00:10;1.10;;;1.00;;
20004;SDS011;69160;45.498;-73.582;2023-04-12T03:02:37;1.10;;;1.00;;
20004;SDS011;69160;45.498;-73.582;2023-04-12T03:05:03;1.57;;;1.10;;
20004;SDS011;69160;45.498;-73.582;2023-04-12T03:07:31;2.00;;;1.20;;
20004;SDS011;69160;45.498;-73.582;2023-04-12T03:09:57;2.20;;;1.23;;
20004;SDS011;69160;45.498;-73.582;2023-04-12T03:12:24;1.37;;;1.10;;
20004;SDS011;69160;45.498;-73.582;2023-04-12T03:14:50;1.47;;;1.00;;
20004;SDS011;69160;45.498;-73.582;2023-04-12T03:17:16;1.67;;;1.07;;
20004;SDS011;69160;45.498;-73.582;2023-04-12T03:19:43;1.47;;;1.13;;
20004;SDS011;69160;45.498;-73.582;2023-04-12T03:22:09;1.73;;;1.13;;
20004;SDS011;69160;45.498;-73.582;2023-04-12T03:24:35;1.20;;;1.10;;
20004;SDS011;69160;45.498;-73.582;2023-04-12T03:27:01;1.50;;;1.40;;
20004;SDS011;69160;45.498;-73.582;2023-04-12T03:29:29;1.20;;;1.10;;
20004;SDS011;69160;45.498;-73.582;2023-04-12T03:31:56;1.40;;;1.30;;
20004;SDS011;69160;45.498;-73.582;2023-04-12T03:34:24;1.33;;;1.13;;
20004;SDS011;69160;45.498;-73.582;2023-04-12T03:36:59;1.97;;;1.33;;
20004;SDS011;69160;45.498;-73.582;2023-04-12T03:39:26;4.10;;;1.47;;
20004;SDS011;69160;45.498;-73.582;2023-04-12T03:41:53;1.60;;;1.17;;
20004;SDS011;69160;45.498;-73.582;2023-04-12T03:44:19;1.67;;;1.20;;
20004;SDS011;69160;45.498;-73.582;2023-04-12T03:46:47;1.17;;;0.80;;
20004;SDS011;69160;45.498;-73.582;2023-04-12T03:49:13;1.43;;;0.97;;
20004;SDS011;69160;45.498;-73.582;2023-04-12T03:51:40;0.90;;;0.80;;
20004;SDS011;69160;45.498;-73.582;2023-04-12T03:54:08;3.00;;;1.20;;
20004;SDS011;69160;45.498;-73.582;2023-04-12T03:56:35;0.80;;;0.80;;
20004;SDS011;69160;45.498;-73.582;2023-04-12T03:59:02;1.00;;;0.90;;
20004;SDS011;69160;45.498;-73.582;2023-04-12T04:01:32;2.87;;;1.10;;
20004;SDS011;69160;45.498;-73.582;2023-04-12T04:03:59;1.53;;;1.03;;
20004;SDS011;69160;45.498;-73.582;2023-04-12T04:06:26;2.10;;;1.10;;
20004;SDS011;69160;45.498;-73.582;2023-04-12T04:08:54;1.73;;;1.10;;
20004;SDS011;69160;45.498;-73.582;2023-04-12T04:11:21;1.40;;;1.17;;
20004;SDS011;69160;45.498;-73.582;2023-04-12T04:13:49;2.33;;;1.40;;
20004;SDS011;69160;45.498;-73.582;2023-04-12T04:16:16;1.23;;;0.97;;
20004;SDS011;69160;45.498;-73.582;2023-04-12T04:18:42;3.40;;;0.90;;
20004;SDS011;69160;45.498;-73.582;2023-04-12T04:21:08;1.30;;;1.03;;
20004;SDS011;69160;45.498;-73.582;2023-04-12T04:23:35;1.10;;;1.00;;
20004;SDS011;69160;45.498;-73.582;2023-04-12T04:26:04;1.60;;;1.20;;
20004;SDS011;69160;45.498;-73.582;2023-04-12T04:28:34;1.20;;;1.10;;
20004;SDS011;69160;45.498;-73.582;2023-04-12T04:31:04;1.10;;;1.00;;
20004;SDS011;69160;45.498;-73.582;2023-04-12T04:33:31;1.03;;;0.90;;
20004;SDS011;69160;45.498;-73.582;2023-04-12T04:35:57;2.10;;;1.30;;
20004;SDS011;69160;45.498;-73.582;2023-04-12T04:38:24;1.20;;;1.10;;
20004;SDS011;69160;45.498;-73.582;2023-04-12T04:40:50;1.53;;;1.10;;
20004;SDS011;69160;45.498;-73.582;2023-04-12T04:43:20;1.67;;;1.20;;
20004;SDS011;69160;45.498;-73.582;2023-04-12T04:45:46;0.97;;;0.90;;
20004;SDS011;69160;45.498;-73.582;2023-04-12T04:48:18;1.00;;;0.90;;
20004;SDS011;69160;45.498;-73.582;2023-04-12T04:50:45;1.30;;;1.13;;
20004;SDS011;69160;45.498;-73.582;2023-04-12T04:53:12;1.77;;;1.20;;
20004;SDS011;69160;45.498;-73.582;2023-04-12T04:55:38;1.07;;;0.97;;
20004;SDS011;69160;45.498;-73.582;2023-04-12T04:58:05;1.30;;;1.20;;
20004;SDS011;69160;45.498;-73.582;2023-04-12T05:00:31;1.83;;;1.20;;
20004;SDS011;69160;45.498;-73.582;2023-04-12T05:02:59;0.97;;;0.87;;
20004;SDS011;69160;45.498;-73.582;2023-04-12T05:05:27;1.87;;;1.20;;
20004;SDS011;69160;45.498;-73.582;2023-04-12T05:07:54;4.83;;;1.07;;
20004;SDS011;69160;45.498;-73.582;2023-04-12T05:10:21;0.80;;;0.80;;
20004;SDS011;69160;45.498;-73.582;2023-04-12T05:12:47;1.10;;;0.93;;
20004;SDS011;69160;45.498;-73.582;2023-04-12T05:15:14;1.20;;;0.90;;
20004;SDS011;69160;45.498;-73.582;2023-04-12T05:17:40;1.37;;;0.80;;
20004;SDS011;69160;45.498;-73.582;2023-04-12T05:20:06;0.80;;;0.80;;
20004;SDS011;69160;45.498;-73.582;2023-04-12T05:22:34;1.30;;;0.80;;
20004;SDS011;69160;45.498;-73.582;2023-04-12T05:25:01;2.60;;;0.90;;
20004;SDS011;69160;45.498;-73.582;2023-04-12T05:27:28;1.00;;;0.90;;
20004;SDS011;69160;45.498;-73.582;2023-04-12T05:29:55;0.80;;;0.80;;
20004;SDS011;69160;45.498;-73.582;2023-04-12T05:32:22;1.13;;;0.90;;
20004;SDS011;69160;45.498;-73.582;2023-04-12T05:34:51;2.53;;;1.00;;
20004;SDS011;69160;45.498;-73.582;2023-04-12T05:37:18;0.90;;;0.70;;
20004;SDS011;69160;45.498;-73.582;2023-04-12T05:39:44;1.20;;;0.90;;
20004;SDS011;69160;45.498;-73.582;2023-04-12T05:42:10;1.20;;;1.10;;
20004;SDS011;69160;45.498;-73.582;2023-04-12T05:44:37;1.00;;;0.90;;
20004;SDS011;69160;45.498;-73.582;2023-04-12T05:47:03;1.37;;;1.10;;
20004;SDS011;69160;45.498;-73.582;2023-04-12T05:49:30;1.10;;;0.80;;
20004;SDS011;69160;45.498;-73.582;2023-04-12T05:51:57;0.73;;;0.63;;
20004;SDS011;69160;45.498;-73.582;2023-04-12T05:54:23;0.80;;;0.80;;
20004;SDS011;69160;45.498;-73.582;2023-04-12T05:56:50;2.40;;;0.70;;
20004;SDS011;69160;45.498;-73.582;2023-04-12T05:59:18;0.90;;;0.77;;
20004;SDS011;69160;45.498;-73.582;2023-04-12T06:01:45;2.00;;;0.60;;
20004;SDS011;69160;45.498;-73.582;2023-04-12T06:04:11;1.03;;;0.73;;
20004;SDS011;69160;45.498;-73.582;2023-04-12T06:06:38;0.90;;;0.73;;
20004;SDS011;69160;45.498;-73.582;2023-04-12T06:09:07;1.20;;;0.67;;
20004;SDS011;69160;45.498;-73.582;2023-04-12T06:11:34;0.80;;;0.80;;
20004;SDS011;69160;45.498;-73.582;2023-04-12T06:14:03;0.90;;;0.70;;
20004;SDS011;69160;45.498;-73.582;2023-04-12T06:16:29;0.97;;;0.80;;
20004;SDS011;69160;45.498;-73.582;2023-04-12T06:18:55;0.70;;;0.60;;
20004;SDS011;69160;45.498;-73.582;2023-04-12T06:21:22;0.90;;;0.73;;
20004;SDS011;69160;45.498;-73.582;2023-04-12T06:23:48;0.80;;;0.70;;
20004;SDS011;69160;45.498;-73.582;2023-04-12T06:26:14;0.80;;;0.80;;
20004;SDS011;69160;45.498;-73.582;2023-04-12T06:28:41;0.60;;;0.60;;
20004;SDS011;69160;45.498;-73.582;2023-04-12T06:31:07;0.90;;;0.70;;
20004;SDS011;69160;45.498;-73.582;2023-04-12T06:33:34;0.60;;;0.57;;
20004;SDS011;69160;45.498;-73.582;2023-04-12T06:36:01;0.60;;;0.43;;
20004;SDS011;69160;45.498;-73.582;2023-04-12T06:38:27;0.80;;;0.80;;
20004;SDS011;69160;45.498;-73.582;2023-04-12T06:40:53;1.00;;;0.77;;
20004;SDS011;69160;45.498;-73.582;2023-04-12T06:43:19;0.63;;;0.53;;
20004;SDS011;69160;45.498;-73.582;2023-04-12T06:45:47;0.63;;;0.60;;
20004;SDS011;69160;45.498;-73.582;2023-04-12T06:48:16;1.00;;;0.60;;
20004;SDS011;69160;45.498;-73.582;2023-04-12T06:50:45;0.67;;;0.50;;
20004;SDS011;69160;45.498;-73.582;2023-04-12T06:53:11;2.43;;;1.40;;
20004;SDS011;69160;45.498;-73.582;2023-04-12T06:55:38;0.60;;;0.60;;
20004;SDS011;69160;45.498;-73.582;2023-04-12T06:58:04;0.87;;;0.60;;
20004;SDS011;69160;45.498;-73.582;2023-04-12T07:00:30;0.73;;;0.50;;
20004;SDS011;69160;45.498;-73.582;2023-04-12T07:02:57;1.23;;;0.70;;
20004;SDS011;69160;45.498;-73.582;2023-04-12T07:05:23;0.77;;;0.60;;
20004;SDS011;69160;45.498;-73.582;2023-04-12T07:07:49;0.70;;;0.57;;
20004;SDS011;69160;45.498;-73.582;2023-04-12T07:10:15;0.80;;;0.70;;
20004;SDS011;69160;45.498;-73.582;2023-04-12T07:12:41;0.67;;;0.60;;
20004;SDS011;69160;45.498;-73.582;2023-04-12T07:15:07;0.67;;;0.67;;
20004;SDS011;69160;45.498;-73.582;2023-04-12T07:17:34;0.90;;;0.80;;
20004;SDS011;69160;45.498;-73.582;2023-04-12T07:20:00;0.60;;;0.50;;
20004;SDS011;69160;45.498;-73.582;2023-04-12T07:22:26;0.60;;;0.60;;
20004;SDS011;69160;45.498;-73.582;2023-04-12T07:24:53;0.60;;;0.50;;
20004;SDS011;69160;45.498;-73.582;2023-04-12T07:27:19;0.80;;;0.60;;
20004;SDS011;69160;45.498;-73.582;2023-04-12T07:29:46;0.80;;;0.70;;
20004;SDS011;69160;45.498;-73.582;2023-04-12T07:32:12;0.80;;;0.60;;
20004;SDS011;69160;45.498;-73.582;2023-04-12T07:34:38;0.60;;;0.50;;
20004;SDS011;69160;45.498;-73.582;2023-04-12T07:37:05;0.70;;;0.50;;
20004;SDS011;69160;45.498;-73.582;2023-04-12T07:39:31;1.03;;;0.53;;
20004;SDS011;69160;45.498;-73.582;2023-04-12T07:41:59;0.60;;;0.43;;
20004;SDS011;69160;45.498;-73.582;2023-04-12T07:44:25;0.50;;;0.50;;
20004;SDS011;69160;45.498;-73.582;2023-04-12T07:46:51;0.60;;;0.57;;
20004;SDS011;69160;45.498;-73.582;2023-04-12T07:49:17;0.90;;;0.60;;
20004;SDS011;69160;45.498;-73.582;2023-04-12T07:51:43;1.27;;;0.60;;
20004;SDS011;69160;45.498;-73.582;2023-04-12T07:54:10;0.60;;;0.60;;
20004;SDS011;69160;45.498;-73.582;2023-04-12T07:56:37;0.90;;;0.53;;
20004;SDS011;69160;45.498;-73.582;2023-04-12T07:59:03;0.60;;;0.40;;
20004;SDS011;69160;45.498;-73.582;2023-04-12T08:01:30;0.50;;;0.40;;
20004;SDS011;69160;45.498;-73.582;2023-04-12T08:03:56;0.60;;;0.53;;
20004;SDS011;69160;45.498;-73.582;2023-04-12T08:06:22;0.60;;;0.50;;
20004;SDS011;69160;45.498;-73.582;2023-04-12T08:08:48;0.80;;;0.53;;
20004;SDS011;69160;45.498;-73.582;2023-04-12T08:11:14;1.27;;;0.60;;
20004;SDS011;69160;45.498;-73.582;2023-04-12T08:13:40;0.80;;;0.50;;
20004;SDS011;69160;45.498;-73.582;2023-04-12T08:16:07;0.50;;;0.47;;
20004;SDS011;69160;45.498;-73.582;2023-04-12T08:18:33;0.80;;;0.70;;
20004;SDS011;69160;45.498;-73.582;2023-04-12T08:20:59;0.70;;;0.57;;
20004;SDS011;69160;45.498;-73.582;2023-04-12T08:23:26;0.50;;;0.40;;
20004;SDS011;69160;45.498;-73.582;2023-04-12T08:25:52;0.50;;;0.40;;
20004;SDS011;69160;45.498;-73.582;2023-04-12T08:28:27;0.60;;;0.60;;
20004;SDS011;69160;45.498;-73.582;2023-04-12T08:30:55;0.80;;;0.60;;
20004;SDS011;69160;45.498;-73.582;2023-04-12T08:33:21;0.87;;;0.50;;
20004;SDS011;69160;45.498;-73.582;2023-04-12T08:35:47;0.57;;;0.50;;
20004;SDS011;69160;45.498;-73.582;2023-04-12T08:38:13;0.70;;;0.50;;
20004;SDS011;69160;45.498;-73.582;2023-04-12T08:40:41;1.00;;;0.60;;
20004;SDS011;69160;45.498;-73.582;2023-04-12T08:43:08;1.20;;;0.60;;
20004;SDS011;69160;45.498;-73.582;2023-04-12T08:45:37;0.67;;;0.50;;
20004;SDS011;69160;45.498;-73.582;2023-04-12T08:48:03;0.60;;;0.40;;
20004;SDS011;69160;45.498;-73.582;2023-04-12T08:50:30;0.60;;;0.50;;
20004;SDS011;69160;45.498;-73.582;2023-04-12T08:52:57;0.50;;;0.40;;
20004;SDS011;69160;45.498;-73.582;2023-04-12T08:55:23;1.07;;;0.50;;
20004;SDS011;69160;45.498;-73.582;2023-04-12T08:57:51;0.70;;;0.50;;
20004;SDS011;69160;45.498;-73.582;2023-04-12T09:00:19;0.50;;;0.30;;
20004;SDS011;69160;45.498;-73.582;2023-04-12T09:02:46;0.60;;;0.50;;
20004;SDS011;69160;45.498;-73.582;2023-04-12T09:05:13;0.60;;;0.50;;
20004;SDS011;69160;45.498;-73.582;2023-04-12T09:07:40;0.63;;;0.43;;
20004;SDS011;69160;45.498;-73.582;2023-04-12T09:10:06;0.60;;;0.50;;
20004;SDS011;69160;45.498;-73.582;2023-04-12T09:12:33;0.70;;;0.57;;
20004;SDS011;69160;45.498;-73.582;2023-04-12T09:15:09;0.80;;;0.40;;
20004;SDS011;69160;45.498;-73.582;2023-04-12T09:17:38;0.70;;;0.50;;
20004;SDS011;69160;45.498;-73.582;2023-04-12T09:20:26;0.90;;;0.50;;
20004;SDS011;69160;45.498;-73.582;2023-04-12T09:22:53;0.50;;;0.40;;
20004;SDS011;69160;45.498;-73.582;2023-04-12T09:28:21;0.90;;;0.50;;
20004;SDS011;69160;45.498;-73.582;2023-04-12T09:30:52;0.60;;;0.50;;
20004;SDS011;69160;45.498;-73.582;2023-04-12T09:33:20;0.70;;;0.50;;
20004;SDS011;69160;45.498;-73.582;2023-04-12T09:35:48;0.60;;;0.40;;
20004;SDS011;69160;45.498;-73.582;2023-04-12T09:38:14;0.60;;;0.50;;
20004;SDS011;69160;45.498;-73.582;2023-04-12T09:40:40;0.70;;;0.43;;
20004;SDS011;69160;45.498;-73.582;2023-04-12T09:43:07;0.80;;;0.50;;
20004;SDS011;69160;45.498;-73.582;2023-04-12T09:45:34;0.60;;;0.40;;
20004;SDS011;69160;45.498;-73.582;2023-04-12T09:48:05;0.60;;;0.40;;
20004;SDS011;69160;45.498;-73.582;2023-04-12T09:50:32;0.77;;;0.60;;
20004;SDS011;69160;45.498;-73.582;2023-04-12T09:52:58;1.70;;;0.50;;
20004;SDS011;69160;45.498;-73.582;2023-04-12T09:55:27;0.60;;;0.40;;
20004;SDS011;69160;45.498;-73.582;2023-04-12T09:57:56;0.63;;;0.47;;
20004;SDS011;69160;45.498;-73.582;2023-04-12T10:00:27;0.50;;;0.50;;
20004;SDS011;69160;45.498;-73.582;2023-04-12T10:02:55;0.80;;;0.53;;
20004;SDS011;69160;45.498;-73.582;2023-04-12T10:05:22;0.80;;;0.40;;
20004;SDS011;69160;45.498;-73.582;2023-04-12T10:07:49;1.57;;;0.57;;
20004;SDS011;69160;45.498;-73.582;2023-04-12T10:10:18;0.57;;;0.50;;
20004;SDS011;69160;45.498;-73.582;2023-04-12T10:12:45;0.80;;;0.40;;
20004;SDS011;69160;45.498;-73.582;2023-04-12T10:15:13;0.60;;;0.50;;
20004;SDS011;69160;45.498;-73.582;2023-04-12T10:17:48;0.50;;;0.40;;
20004;SDS011;69160;45.498;-73.582;2023-04-12T10:20:18;0.60;;;0.40;;
20004;SDS011;69160;45.498;-73.582;2023-04-12T10:25:14;0.50;;;0.40;;
20004;SDS011;69160;45.498;-73.582;2023-04-12T10:27:51;1.10;;;0.60;;
20004;SDS011;69160;45.498;-73.582;2023-04-12T10:30:35;0.60;;;0.40;;
20004;SDS011;69160;45.498;-73.582;2023-04-12T10:35:48;0.60;;;0.50;;
20004;SDS011;69160;45.498;-73.582;2023-04-12T10:38:15;0.70;;;0.40;;
20004;SDS011;69160;45.498;-73.582;2023-04-12T10:43:49;0.80;;;0.50;;
20004;SDS011;69160;45.498;-73.582;2023-04-12T10:49:13;1.53;;;0.50;;
20004;SDS011;69160;45.498;-73.582;2023-04-12T10:56:52;0.80;;;0.50;;
20004;SDS011;69160;45.498;-73.582;2023-04-12T10:59:19;0.50;;;0.40;;
20004;SDS011;69160;45.498;-73.582;2023-04-12T11:04:34;0.60;;;0.40;;
20004;SDS011;69160;45.498;-73.582;2023-04-12T11:07:01;0.70;;;0.50;;
20004;SDS011;69160;45.498;-73.582;2023-04-12T11:14:35;0.60;;;0.50;;
20004;SDS011;69160;45.498;-73.582;2023-04-12T11:19:31;1.27;;;0.40;;
20004;SDS011;69160;45.498;-73.582;2023-04-12T11:22:02;0.93;;;0.60;;
20004;SDS011;69160;45.498;-73.582;2023-04-12T11:24:29;0.80;;;0.50;;
20004;SDS011;69160;45.498;-73.582;2023-04-12T11:26:56;1.00;;;0.60;;
20004;SDS011;69160;45.498;-73.582;2023-04-12T11:29:23;0.50;;;0.50;;
20004;SDS011;69160;45.498;-73.582;2023-04-12T11:31:50;4.57;;;0.70;;
20004;SDS011;69160;45.498;-73.582;2023-04-12T11:34:17;2.27;;;1.00;;
20004;SDS011;69160;45.498;-73.582;2023-04-12T11:36:47;0.50;;;0.40;;
20004;SDS011;69160;45.498;-73.582;2023-04-12T11:39:17;0.77;;;0.60;;
20004;SDS011;69160;45.498;-73.582;2023-04-12T11:41:47;1.00;;;0.50;;
20004;SDS011;69160;45.498;-73.582;2023-04-12T11:44:14;214.10;;;92.87;;
20004;SDS011;69160;45.498;-73.582;2023-04-12T11:46:46;126.10;;;58.83;;
20004;SDS011;69160;45.498;-73.582;2023-04-12T11:49:16;80.83;;;36.27;;
20004;SDS011;69160;45.498;-73.582;2023-04-12T11:51:44;495.17;;;294.80;;
20004;SDS011;69160;45.498;-73.582;2023-04-12T11:54:11;419.00;;;217.80;;
20004;SDS011;69160;45.498;-73.582;2023-04-12T11:56:38;209.80;;;103.10;;
20004;SDS011;69160;45.498;-73.582;2023-04-12T11:59:05;137.60;;;66.33;;
20004;SDS011;69160;45.498;-73.582;2023-04-12T12:01:35;106.53;;;54.17;;
20004;SDS011;69160;45.498;-73.582;2023-04-12T12:04:02;82.80;;;43.33;;
20004;SDS011;69160;45.498;-73.582;2023-04-12T12:06:29;71.73;;;38.90;;
20004;SDS011;69160;45.498;-73.582;2023-04-12T12:08:56;65.07;;;33.23;;
20004;SDS011;69160;45.498;-73.582;2023-04-12T12:11:23;54.83;;;29.03;;
20004;SDS011;69160;45.498;-73.582;2023-04-12T12:16:19;42.57;;;23.07;;
20004;SDS011;69160;45.498;-73.582;2023-04-12T12:18:54;35.17;;;20.20;;
20004;SDS011;69160;45.498;-73.582;2023-04-12T12:21:22;33.70;;;18.00;;
20004;SDS011;69160;45.498;-73.582;2023-04-12T12:23:48;26.50;;;14.97;;
20004;SDS011;69160;45.498;-73.582;2023-04-12T12:26:22;19.40;;;12.30;;
20004;SDS011;69160;45.498;-73.582;2023-04-12T12:28:50;18.07;;;10.50;;
20004;SDS011;69160;45.498;-73.582;2023-04-12T12:31:18;19.07;;;10.17;;
20004;SDS011;69160;45.498;-73.582;2023-04-12T12:33:45;14.47;;;9.33;;
20004;SDS011;69160;45.498;-73.582;2023-04-12T12:36:12;15.07;;;8.97;;
20004;SDS011;69160;45.498;-73.582;2023-04-12T12:38:38;13.70;;;7.87;;
20004;SDS011;69160;45.498;-73.582;2023-04-12T12:41:16;13.30;;;7.87;;
20004;SDS011;69160;45.498;-73.582;2023-04-12T12:43:49;11.50;;;6.77;;
20004;SDS011;69160;45.498;-73.582;2023-04-12T12:46:16;27.93;;;9.60;;
20004;SDS011;69160;45.498;-73.582;2023-04-12T12:48:44;24.53;;;10.23;;
20004;SDS011;69160;45.498;-73.582;2023-04-12T12:51:11;28.17;;;11.57;;
20004;SDS011;69160;45.498;-73.582;2023-04-12T12:53:39;25.27;;;10.33;;
20004;SDS011;69160;45.498;-73.582;2023-04-12T12:56:09;15.60;;;8.57;;
20004;SDS011;69160;45.498;-73.582;2023-04-12T12:58:36;18.40;;;8.00;;
20004;SDS011;69160;45.498;-73.582;2023-04-12T13:01:03;15.27;;;7.57;;
20004;SDS011;69160;45.498;-73.582;2023-04-12T13:03:29;16.30;;;7.40;;
20004;SDS011;69160;45.498;-73.582;2023-04-12T13:05:56;11.63;;;6.13;;
20004;SDS011;69160;45.498;-73.582;2023-04-12T13:08:22;17.07;;;6.87;;
20004;SDS011;69160;45.498;-73.582;2023-04-12T13:10:49;11.67;;;6.07;;
20004;SDS011;69160;45.498;-73.582;2023-04-12T13:13:17;35.03;;;9.10;;
20004;SDS011;69160;45.498;-73.582;2023-04-12T13:15:43;35.50;;;8.93;;
20004;SDS011;69160;45.498;-73.582;2023-04-12T13:18:13;17.00;;;7.27;;
20004;SDS011;69160;45.498;-73.582;2023-04-12T13:20:40;19.57;;;6.33;;
20004;SDS011;69160;45.498;-73.582;2023-04-12T13:23:07;11.60;;;4.50;;
20004;SDS011;69160;45.498;-73.582;2023-04-12T13:25:33;9.87;;;4.67;;
20004;SDS011;69160;45.498;-73.582;2023-04-12T13:27:59;11.77;;;4.20;;
20004;SDS011;69160;45.498;-73.582;2023-04-12T13:30:26;8.10;;;3.73;;
20004;SDS011;69160;45.498;-73.582;2023-04-12T13:32:52;5.53;;;2.97;;
20004;SDS011;69160;45.498;-73.582;2023-04-12T13:35:19;7.63;;;4.37;;
20004;SDS011;69160;45.498;-73.582;2023-04-12T13:37:45;8.13;;;3.33;;
20004;SDS011;69160;45.498;-73.582;2023-04-12T13:40:12;21.80;;;6.27;;
20004;SDS011;69160;45.498;-73.582;2023-04-12T13:42:38;10.77;;;4.30;;
20004;SDS011;69160;45.498;-73.582;2023-04-12T13:45:05;7.63;;;4.37;;
20004;SDS011;69160;45.498;-73.582;2023-04-12T13:47:31;10.87;;;3.37;;
20004;SDS011;69160;45.498;-73.582;2023-04-12T13:49:59;6.37;;;2.80;;
20004;SDS011;69160;45.498;-73.582;2023-04-12T13:52:26;4.63;;;2.60;;
20004;SDS011;69160;45.498;-73.582;2023-04-12T13:54:52;5.20;;;2.63;;
20004;SDS011;69160;45.498;-73.582;2023-04-12T13:57:19;4.97;;;2.37;;
20004;SDS011;69160;45.498;-73.582;2023-04-12T13:59:45;3.20;;;2.10;;
20004;SDS011;69160;45.498;-73.582;2023-04-12T14:02:11;2.87;;;2.00;;
20004;SDS011;69160;45.498;-73.582;2023-04-12T14:04:47;3.47;;;1.67;;
20004;SDS011;69160;45.498;-73.582;2023-04-12T14:07:16;1.93;;;1.30;;
20004;SDS011;69160;45.498;-73.582;2023-04-12T14:09:42;5.20;;;1.70;;
20004;SDS011;69160;45.498;-73.582;2023-04-12T14:12:08;3.90;;;1.63;;
20004;SDS011;69160;45.498;-73.582;2023-04-12T14:14:34;3.93;;;1.30;;
20004;SDS011;69160;45.498;-73.582;2023-04-12T14:17:00;1.77;;;1.30;;
20004;SDS011;69160;45.498;-73.582;2023-04-12T14:19:27;4.23;;;1.50;;
20004;SDS011;69160;45.498;-73.582;2023-04-12T14:21:53;5.10;;;1.30;;
20004;SDS011;69160;45.498;-73.582;2023-04-12T14:24:20;2.13;;;1.50;;
20004;SDS011;69160;45.498;-73.582;2023-04-12T14:26:47;2.73;;;1.50;;
20004;SDS011;69160;45.498;-73.582;2023-04-12T14:29:14;4.80;;;1.37;;
20004;SDS011;69160;45.498;-73.582;2023-04-12T14:31:41;2.93;;;1.13;;
20004;SDS011;69160;45.498;-73.582;2023-04-12T14:34:07;6.87;;;1.60;;
20004;SDS011;69160;45.498;-73.582;2023-04-12T14:36:34;4.17;;;1.10;;
20004;SDS011;69160;45.498;-73.582;2023-04-12T14:39:01;3.10;;;1.37;;
20004;SDS011;69160;45.498;-73.582;2023-04-12T14:41:30;4.90;;;1.00;;
20004;SDS011;69160;45.498;-73.582;2023-04-12T14:43:59;2.17;;;1.30;;
20004;SDS011;69160;45.498;-73.582;2023-04-12T14:46:26;2.60;;;0.90;;
20004;SDS011;69160;45.498;-73.582;2023-04-12T14:48:53;2.30;;;0.97;;
20004;SDS011;69160;45.498;-73.582;2023-04-12T14:51:20;2.00;;;1.10;;
20004;SDS011;69160;45.498;-73.582;2023-04-12T14:53:47;1.67;;;0.93;;
20004;SDS011;69160;45.498;-73.582;2023-04-12T14:56:19;1.57;;;0.90;;
20004;SDS011;69160;45.498;-73.582;2023-04-12T14:58:46;1.10;;;0.80;;
20004;SDS011;69160;45.498;-73.582;2023-04-12T15:01:12;2.40;;;0.70;;
20004;SDS011;69160;45.498;-73.582;2023-04-12T15:03:40;0.90;;;0.80;;